sensor_id;sensor_type;location;lat;lon;timestamp;temperature;humidity
21612;DHT22;47005;52.292;13.452;2022-09-16T00:01:26;14.70;99.90
21612;DHT22;47005;52.292;13.452;2022-09-16T00:03:56;14.70;99.90
21612;DHT22;47005;52.292;13.452;2022-09-16T00:06:24;14.70;99.90
21612;DHT22;47005;52.292;13.452;2022-09-16T00:08:51;14.60;99.90
21612;DHT22;47005;52.292;13.452;2022-09-16T00:11:17;14.60;99.90
21612;DHT22;47005;52.292;13.452;2022-09-16T00:13:43;14.60;99.90
21612;DHT22;47005;52.292;13.452;2022-09-16T00:16:16;14.60;99.90
21612;DHT22;47005;52.292;13.452;2022-09-16T00:18:41;14.60;99.90
21612;DHT22;47005;52.292;13.452;2022-09-16T00:21:08;14.50;99.90
21612;DHT22;47005;52.292;13.452;2022-09-16T00:23:35;14.60;99.90
21612;DHT22;47005;52.292;13.452;2022-09-16T00:26:01;14.50;99.90
21612;DHT22;47005;52.292;13.452;2022-09-16T00:28:26;14.50;99.90
21612;DHT22;47005;52.292;13.452;2022-09-16T00:30:52;14.50;99.90
21612;DHT22;47005;52.292;13.452;2022-09-16T00:33:19;14.50;99.90
21612;DHT22;47005;52.292;13.452;2022-09-16T00:35:45;14.50;99.90
21612;DHT22;47005;52.292;13.452;2022-09-16T00:38:11;14.40;99.90
21612;DHT22;47005;52.292;13.452;2022-09-16T00:40:45;14.40;99.90
21612;DHT22;47005;52.292;13.452;2022-09-16T00:43:16;14.40;99.90
21612;DHT22;47005;52.292;13.452;2022-09-16T00:45:50;14.30;99.90
21612;DHT22;47005;52.292;13.452;2022-09-16T00:48:22;14.40;99.90
21612;DHT22;47005;52.292;13.452;2022-09-16T00:50:53;14.40;99.90
21612;DHT22;47005;52.292;13.452;2022-09-16T00:53:27;14.40;99.90
21612;DHT22;47005;52.292;13.452;2022-09-16T00:55:56;14.30;99.90
21612;DHT22;47005;52.292;13.452;2022-09-16T00:58:38;14.30;99.90
21612;DHT22;47005;52.292;13.452;2022-09-16T01:01:05;14.30;99.90
21612;DHT22;47005;52.292;13.452;2022-09-16T01:03:34;14.30;99.90
21612;DHT22;47005;52.292;13.452;2022-09-16T01:06:02;14.20;99.90
21612;DHT22;47005;52.292;13.452;2022-09-16T01:08:28;14.20;99.90
21612;DHT22;47005;52.292;13.452;2022-09-16T01:10:54;14.20;99.90
21612;DHT22;47005;52.292;13.452;2022-09-16T01:13:20;14.20;99.90
21612;DHT22;47005;52.292;13.452;2022-09-16T01:18:43;14.20;99.90
21612;DHT22;47005;52.292;13.452;2022-09-16T01:24:21;14.20;99.90
21612;DHT22;47005;52.292;13.452;2022-09-16T01:32:57;14.10;99.90
21612;DHT22;47005;52.292;13.452;2022-09-16T01:35:35;14.10;99.90
21612;DHT22;47005;52.292;13.452;2022-09-16T01:41:01;14.10;99.90
21612;DHT22;47005;52.292;13.452;2022-09-16T01:55:05;13.90;99.90
21612;DHT22;47005;52.292;13.452;2022-09-16T02:00:11;13.90;99.90
21612;DHT22;47005;52.292;13.452;2022-09-16T02:02:57;13.90;99.90
21612;DHT22;47005;52.292;13.452;2022-09-16T02:05:25;13.80;99.90
21612;DHT22;47005;52.292;13.452;2022-09-16T02:07:58;13.90;99.90
21612;DHT22;47005;52.292;13.452;2022-09-16T02:10:30;13.90;99.90
21612;DHT22;47005;52.292;13.452;2022-09-16T02:13:02;13.80;99.90
21612;DHT22;47005;52.292;13.452;2022-09-16T02:15:29;13.80;99.90
21612;DHT22;47005;52.292;13.452;2022-09-16T02:18:04;13.80;99.90
21612;DHT22;47005;52.292;13.452;2022-09-16T02:20:35;13.80;99.90
21612;DHT22;47005;52.292;13.452;2022-09-16T02:23:11;13.90;99.90
21612;DHT22;47005;52.292;13.452;2022-09-16T02:25:40;13.80;99.90
21612;DHT22;47005;52.292;13.452;2022-09-16T02:28:10;13.80;99.90
21612;DHT22;47005;52.292;13.452;2022-09-16T02:30:40;13.80;99.90
21612;DHT22;47005;52.292;13.452;2022-09-16T02:33:08;13.70;99.90
21612;DHT22;47005;52.292;13.452;2022-09-16T02:35:37;13.80;99.90
21612;DHT22;47005;52.292;13.452;2022-09-16T02:38:08;13.70;99.90
21612;DHT22;47005;52.292;13.452;2022-09-16T02:40:57;13.70;99.90
21612;DHT22;47005;52.292;13.452;2022-09-16T02:43:24;13.70;99.90
21612;DHT22;47005;52.292;13.452;2022-09-16T02:48:58;13.70;99.90
21612;DHT22;47005;52.292;13.452;2022-09-16T02:56:41;13.70;99.90
21612;DHT22;47005;52.292;13.452;2022-09-16T02:59:09;13.70;99.90
21612;DHT22;47005;52.292;13.452;2022-09-16T03:01:41;13.60;99.90
21612;DHT22;47005;52.292;13.452;2022-09-16T03:04:08;13.60;99.90
21612;DHT22;47005;52.292;13.452;2022-09-16T03:06:34;13.70;99.90
21612;DHT22;47005;52.292;13.452;2022-09-16T03:09:03;13.60;99.90
21612;DHT22;47005;52.292;13.452;2022-09-16T03:25:21;13.60;99.90
21612;DHT22;47005;52.292;13.452;2022-09-16T03:27:51;13.50;99.90
21612;DHT22;47005;52.292;13.452;2022-09-16T03:30:22;13.50;99.90
21612;DHT22;47005;52.292;13.452;2022-09-16T03:32:56;13.40;99.90
21612;DHT22;47005;52.292;13.452;2022-09-16T03:35:26;13.50;99.90
21612;DHT22;47005;52.292;13.452;2022-09-16T03:37:55;13.50;99.90
21612;DHT22;47005;52.292;13.452;2022-09-16T03:40:22;13.50;99.90
21612;DHT22;47005;52.292;13.452;2022-09-16T03:42:48;13.40;99.90
21612;DHT22;47005;52.292;13.452;2022-09-16T03:45:16;13.40;99.90
21612;DHT22;47005;52.292;13.452;2022-09-16T03:47:43;13.40;99.90
21612;DHT22;47005;52.292;13.452;2022-09-16T03:50:10;13.40;99.90
21612;DHT22;47005;52.292;13.452;2022-09-16T03:52:36;13.40;99.90
21612;DHT22;47005;52.292;13.452;2022-09-16T03:55:01;13.40;99.90
21612;DHT22;47005;52.292;13.452;2022-09-16T03:57:27;13.30;99.90
21612;DHT22;47005;52.292;13.452;2022-09-16T03:59:54;13.30;99.90
21612;DHT22;47005;52.292;13.452;2022-09-16T04:02:20;13.30;99.90
21612;DHT22;47005;52.292;13.452;2022-09-16T04:04:45;13.30;99.90
21612;DHT22;47005;52.292;13.452;2022-09-16T04:07:11;13.30;99.90
21612;DHT22;47005;52.292;13.452;2022-09-16T04:09:37;13.20;99.90
21612;DHT22;47005;52.292;13.452;2022-09-16T04:12:03;13.30;99.90
21612;DHT22;47005;52.292;13.452;2022-09-16T04:14:29;13.30;99.90
21612;DHT22;47005;52.292;13.452;2022-09-16T04:16:55;13.30;99.90
21612;DHT22;47005;52.292;13.452;2022-09-16T04:19:20;13.30;99.90
21612;DHT22;47005;52.292;13.452;2022-09-16T04:21:46;13.30;99.90
21612;DHT22;47005;52.292;13.452;2022-09-16T04:24:12;13.30;99.90
21612;DHT22;47005;52.292;13.452;2022-09-16T04:26:37;13.30;99.90
21612;DHT22;47005;52.292;13.452;2022-09-16T04:29:03;13.20;99.90
21612;DHT22;47005;52.292;13.452;2022-09-16T04:31:28;13.20;99.90
21612;DHT22;47005;52.292;13.452;2022-09-16T04:33:54;13.30;99.90
21612;DHT22;47005;52.292;13.452;2022-09-16T04:36:22;13.20;99.90
21612;DHT22;47005;52.292;13.452;2022-09-16T04:38:48;13.20;99.90
21612;DHT22;47005;52.292;13.452;2022-09-16T04:41:18;13.20;99.90
21612;DHT22;47005;52.292;13.452;2022-09-16T04:43:44;13.20;99.90
21612;DHT22;47005;52.292;13.452;2022-09-16T04:46:10;13.10;99.90
21612;DHT22;47005;52.292;13.452;2022-09-16T04:48:36;13.10;99.90
21612;DHT22;47005;52.292;13.452;2022-09-16T04:51:07;13.20;99.90
21612;DHT22;47005;52.292;13.452;2022-09-16T04:53:34;13.10;99.90
21612;DHT22;47005;52.292;13.452;2022-09-16T04:56:08;13.10;99.90
21612;DHT22;47005;52.292;13.452;2022-09-16T04:58:34;13.10;99.90
21612;DHT22;47005;52.292;13.452;2022-09-16T05:01:08;13.10;99.90
21612;DHT22;47005;52.292;13.452;2022-09-16T05:03:40;13.10;99.90
21612;DHT22;47005;52.292;13.452;2022-09-16T05:06:09;13.10;99.90
21612;DHT22;47005;52.292;13.452;2022-09-16T05:08:36;13.10;99.90
21612;DHT22;47005;52.292;13.452;2022-09-16T05:11:12;13.10;99.90
21612;DHT22;47005;52.292;13.452;2022-09-16T05:13:38;13.10;99.90
21612;DHT22;47005;52.292;13.452;2022-09-16T05:16:06;13.00;99.90
21612;DHT22;47005;52.292;13.452;2022-09-16T05:18:33;13.00;99.90
21612;DHT22;47005;52.292;13.452;2022-09-16T05:21:01;13.00;99.90
21612;DHT22;47005;52.292;13.452;2022-09-16T05:23:27;13.00;99.90
21612;DHT22;47005;52.292;13.452;2022-09-16T05:25:53;13.00;99.90
21612;DHT22;47005;52.292;13.452;2022-09-16T05:28:20;13.00;99.90
21612;DHT22;47005;52.292;13.452;2022-09-16T05:30:46;13.00;99.90
21612;DHT22;47005;52.292;13.452;2022-09-16T05:33:11;13.00;99.90
21612;DHT22;47005;52.292;13.452;2022-09-16T05:35:37;13.00;99.90
21612;DHT22;47005;52.292;13.452;2022-09-16T05:38:03;13.00;99.90
21612;DHT22;47005;52.292;13.452;2022-09-16T05:40:28;12.90;99.90
21612;DHT22;47005;52.292;13.452;2022-09-16T05:42:54;13.00;99.90
21612;DHT22;47005;52.292;13.452;2022-09-16T05:45:20;13.00;99.90
21612;DHT22;47005;52.292;13.452;2022-09-16T05:47:49;13.00;99.90
21612;DHT22;47005;52.292;13.452;2022-09-16T05:50:15;13.00;99.90
21612;DHT22;47005;52.292;13.452;2022-09-16T05:52:41;13.00;99.90
21612;DHT22;47005;52.292;13.452;2022-09-16T05:55:07;13.00;99.90
21612;DHT22;47005;52.292;13.452;2022-09-16T05:57:33;13.00;99.90
21612;DHT22;47005;52.292;13.452;2022-09-16T05:59:58;13.00;99.90
21612;DHT22;47005;52.292;13.452;2022-09-16T06:02:24;13.10;99.90
21612;DHT22;47005;52.292;13.452;2022-09-16T06:04:49;13.10;99.90
21612;DHT22;47005;52.292;13.452;2022-09-16T06:07:15;13.00;99.90
21612;DHT22;47005;52.292;13.452;2022-09-16T06:09:42;13.10;99.90
21612;DHT22;47005;52.292;13.452;2022-09-16T06:12:08;13.10;99.90
21612;DHT22;47005;52.292;13.452;2022-09-16T06:14:35;13.10;99.90
21612;DHT22;47005;52.292;13.452;2022-09-16T06:17:02;13.10;99.90
21612;DHT22;47005;52.292;13.452;2022-09-16T06:19:28;13.10;99.90
21612;DHT22;47005;52.292;13.452;2022-09-16T06:21:54;13.10;99.90
21612;DHT22;47005;52.292;13.452;2022-09-16T06:24:22;13.10;99.90
21612;DHT22;47005;52.292;13.452;2022-09-16T06:26:48;13.10;99.90
21612;DHT22;47005;52.292;13.452;2022-09-16T06:29:15;13.20;99.90
21612;DHT22;47005;52.292;13.452;2022-09-16T06:31:41;13.10;99.90
21612;DHT22;47005;52.292;13.452;2022-09-16T06:34:14;13.10;99.90
21612;DHT22;47005;52.292;13.452;2022-09-16T06:36:41;13.10;99.90
21612;DHT22;47005;52.292;13.452;2022-09-16T06:39:06;13.20;99.90
21612;DHT22;47005;52.292;13.452;2022-09-16T06:41:33;13.20;99.90
21612;DHT22;47005;52.292;13.452;2022-09-16T06:43:59;13.20;99.90
21612;DHT22;47005;52.292;13.452;2022-09-16T06:46:27;13.20;99.90
21612;DHT22;47005;52.292;13.452;2022-09-16T06:48:55;13.20;99.90
21612;DHT22;47005;52.292;13.452;2022-09-16T06:51:31;13.20;99.90
21612;DHT22;47005;52.292;13.452;2022-09-16T06:54:01;13.20;99.90
21612;DHT22;47005;52.292;13.452;2022-09-16T06:56:27;13.30;99.90
21612;DHT22;47005;52.292;13.452;2022-09-16T06:58:53;13.30;99.90
21612;DHT22;47005;52.292;13.452;2022-09-16T07:01:25;13.30;99.90
21612;DHT22;47005;52.292;13.452;2022-09-16T07:03:52;13.30;99.90
21612;DHT22;47005;52.292;13.452;2022-09-16T07:06:19;13.40;99.90
21612;DHT22;47005;52.292;13.452;2022-09-16T07:08:46;13.30;99.90
21612;DHT22;47005;52.292;13.452;2022-09-16T07:11:14;13.40;99.90
21612;DHT22;47005;52.292;13.452;2022-09-16T07:13:40;13.40;99.90
21612;DHT22;47005;52.292;13.452;2022-09-16T07:16:09;13.40;99.90
21612;DHT22;47005;52.292;13.452;2022-09-16T07:18:35;13.40;99.90
21612;DHT22;47005;52.292;13.452;2022-09-16T07:21:16;13.50;99.90
21612;DHT22;47005;52.292;13.452;2022-09-16T07:23:42;13.40;99.90
21612;DHT22;47005;52.292;13.452;2022-09-16T07:26:13;13.50;99.90
21612;DHT22;47005;52.292;13.452;2022-09-16T07:28:40;13.50;99.90
21612;DHT22;47005;52.292;13.452;2022-09-16T07:31:09;13.60;99.90
21612;DHT22;47005;52.292;13.452;2022-09-16T07:33:37;13.60;99.90
21612;DHT22;47005;52.292;13.452;2022-09-16T07:36:04;13.70;99.90
21612;DHT22;47005;52.292;13.452;2022-09-16T07:38:30;13.60;99.90
21612;DHT22;47005;52.292;13.452;2022-09-16T07:41:13;13.60;99.90
21612;DHT22;47005;52.292;13.452;2022-09-16T07:43:41;13.70;99.90
21612;DHT22;47005;52.292;13.452;2022-09-16T07:46:07;13.70;99.90
21612;DHT22;47005;52.292;13.452;2022-09-16T07:48:33;13.80;99.90
21612;DHT22;47005;52.292;13.452;2022-09-16T07:51:01;13.70;99.90
21612;DHT22;47005;52.292;13.452;2022-09-16T07:53:28;13.80;99.90
21612;DHT22;47005;52.292;13.452;2022-09-16T07:56:04;13.80;99.90
21612;DHT22;47005;52.292;13.452;2022-09-16T07:58:30;13.90;99.90
21612;DHT22;47005;52.292;13.452;2022-09-16T08:00:57;13.90;99.90
21612;DHT22;47005;52.292;13.452;2022-09-16T08:03:23;13.90;99.90
21612;DHT22;47005;52.292;13.452;2022-09-16T08:05:48;13.90;99.90
21612;DHT22;47005;52.292;13.452;2022-09-16T08:08:14;13.90;99.90
21612;DHT22;47005;52.292;13.452;2022-09-16T08:10:40;13.90;99.90
21612;DHT22;47005;52.292;13.452;2022-09-16T08:13:07;14.00;99.90
21612;DHT22;47005;52.292;13.452;2022-09-16T08:15:33;14.00;99.90
21612;DHT22;47005;52.292;13.452;2022-09-16T08:17:58;14.10;99.90
21612;DHT22;47005;52.292;13.452;2022-09-16T08:20:24;14.10;99.90
21612;DHT22;47005;52.292;13.452;2022-09-16T08:22:50;14.10;99.90
21612;DHT22;47005;52.292;13.452;2022-09-16T08:25:16;14.10;99.90
21612;DHT22;47005;52.292;13.452;2022-09-16T08:27:42;14.20;99.90
21612;DHT22;47005;52.292;13.452;2022-09-16T08:30:08;14.20;99.90
21612;DHT22;47005;52.292;13.452;2022-09-16T08:32:34;14.20;99.90
21612;DHT22;47005;52.292;13.452;2022-09-16T08:34:59;14.20;99.90
21612;DHT22;47005;52.292;13.452;2022-09-16T08:37:25;14.20;99.90
21612;DHT22;47005;52.292;13.452;2022-09-16T08:39:51;14.30;99.90
21612;DHT22;47005;52.292;13.452;2022-09-16T08:42:38;14.30;99.90
21612;DHT22;47005;52.292;13.452;2022-09-16T08:47:41;14.50;99.90
21612;DHT22;47005;52.292;13.452;2022-09-16T08:50:32;14.50;99.90
21612;DHT22;47005;52.292;13.452;2022-09-16T08:53:02;14.50;99.90
21612;DHT22;47005;52.292;13.452;2022-09-16T08:55:33;14.50;99.90
21612;DHT22;47005;52.292;13.452;2022-09-16T08:58:11;14.50;99.90
21612;DHT22;47005;52.292;13.452;2022-09-16T09:00:38;14.60;99.90
21612;DHT22;47005;52.292;13.452;2022-09-16T09:05:59;14.60;99.90
21612;DHT22;47005;52.292;13.452;2022-09-16T09:19:40;14.70;99.90
21612;DHT22;47005;52.292;13.452;2022-09-16T09:30:20;14.80;99.90
21612;DHT22;47005;52.292;13.452;2022-09-16T09:35:59;14.80;99.90
21612;DHT22;47005;52.292;13.452;2022-09-16T09:43:43;14.90;99.90
21612;DHT22;47005;52.292;13.452;2022-09-16T09:46:24;14.90;99.90
21612;DHT22;47005;52.292;13.452;2022-09-16T09:48:59;15.00;99.90
21612;DHT22;47005;52.292;13.452;2022-09-16T09:56:54;15.10;99.90
21612;DHT22;47005;52.292;13.452;2022-09-16T10:00:30;15.20;99.90
21612;DHT22;47005;52.292;13.452;2022-09-16T10:02:40;15.20;99.90
21612;DHT22;47005;52.292;13.452;2022-09-16T10:05:27;15.30;99.90
21612;DHT22;47005;52.292;13.452;2022-09-16T10:10:55;15.30;99.20
21612;DHT22;47005;52.292;13.452;2022-09-16T10:13:22;15.30;98.50
21612;DHT22;47005;52.292;13.452;2022-09-16T10:15:51;15.30;97.90
21612;DHT22;47005;52.292;13.452;2022-09-16T10:18:25;15.40;98.00
21612;DHT22;47005;52.292;13.452;2022-09-16T10:21:15;15.40;98.80
21612;DHT22;47005;52.292;13.452;2022-09-16T10:23:55;15.40;98.90
21612;DHT22;47005;52.292;13.452;2022-09-16T10:26:26;15.40;98.90
21612;DHT22;47005;52.292;13.452;2022-09-16T10:31:23;15.40;98.50
21612;DHT22;47005;52.292;13.452;2022-09-16T10:33:49;15.40;97.40
21612;DHT22;47005;52.292;13.452;2022-09-16T10:36:21;15.40;97.60
21612;DHT22;47005;52.292;13.452;2022-09-16T10:38:59;15.40;97.30
21612;DHT22;47005;52.292;13.452;2022-09-16T10:41:40;15.40;97.30
21612;DHT22;47005;52.292;13.452;2022-09-16T10:44:16;15.50;97.40
21612;DHT22;47005;52.292;13.452;2022-09-16T10:47:05;15.40;97.30
21612;DHT22;47005;52.292;13.452;2022-09-16T10:49:45;15.50;97.10
21612;DHT22;47005;52.292;13.452;2022-09-16T10:52:13;15.50;96.80
21612;DHT22;47005;52.292;13.452;2022-09-16T10:54:40;15.50;96.40
21612;DHT22;47005;52.292;13.452;2022-09-16T10:57:27;15.50;96.30
21612;DHT22;47005;52.292;13.452;2022-09-16T10:59:58;15.50;96.50
21612;DHT22;47005;52.292;13.452;2022-09-16T11:05:06;15.60;95.80
21612;DHT22;47005;52.292;13.452;2022-09-16T11:07:41;15.60;96.00
21612;DHT22;47005;52.292;13.452;2022-09-16T11:10:19;15.60;95.50
21612;DHT22;47005;52.292;13.452;2022-09-16T11:32:09;15.90;94.70
21612;DHT22;47005;52.292;13.452;2022-09-16T11:34:56;15.90;94.40
21612;DHT22;47005;52.292;13.452;2022-09-16T11:37:41;15.90;96.20
21612;DHT22;47005;52.292;13.452;2022-09-16T11:57:07;15.70;98.30
21612;DHT22;47005;52.292;13.452;2022-09-16T12:02:18;15.70;98.90
21612;DHT22;47005;52.292;13.452;2022-09-16T12:04:55;15.60;99.20
21612;DHT22;47005;52.292;13.452;2022-09-16T12:07:33;15.60;99.30
21612;DHT22;47005;52.292;13.452;2022-09-16T12:10:17;15.60;99.30
21612;DHT22;47005;52.292;13.452;2022-09-16T12:13:00;15.60;99.40
21612;DHT22;47005;52.292;13.452;2022-09-16T12:15:38;15.50;99.40
21612;DHT22;47005;52.292;13.452;2022-09-16T12:21:54;15.50;99.60
21612;DHT22;47005;52.292;13.452;2022-09-16T12:24:02;15.50;99.60
21612;DHT22;47005;52.292;13.452;2022-09-16T12:26:41;15.60;99.70
21612;DHT22;47005;52.292;13.452;2022-09-16T12:29:13;15.50;99.50
21612;DHT22;47005;52.292;13.452;2022-09-16T12:32:03;15.60;97.80
21612;DHT22;47005;52.292;13.452;2022-09-16T12:34:40;15.60;97.20
21612;DHT22;47005;52.292;13.452;2022-09-16T12:39:51;15.60;96.00
21612;DHT22;47005;52.292;13.452;2022-09-16T12:50:51;15.70;95.90
21612;DHT22;47005;52.292;13.452;2022-09-16T12:59:20;15.80;95.10
21612;DHT22;47005;52.292;13.452;2022-09-16T13:01:51;15.80;95.10
21612;DHT22;47005;52.292;13.452;2022-09-16T13:04:22;15.80;95.60
21612;DHT22;47005;52.292;13.452;2022-09-16T13:06:51;15.90;94.40
21612;DHT22;47005;52.292;13.452;2022-09-16T13:09:23;15.80;94.20
21612;DHT22;47005;52.292;13.452;2022-09-16T13:14:46;15.90;92.30
21612;DHT22;47005;52.292;13.452;2022-09-16T13:17:12;15.90;93.50
21612;DHT22;47005;52.292;13.452;2022-09-16T13:22:40;15.90;93.00
21612;DHT22;47005;52.292;13.452;2022-09-16T13:27:58;16.00;93.20
21612;DHT22;47005;52.292;13.452;2022-09-16T13:30:36;16.00;93.00
21612;DHT22;47005;52.292;13.452;2022-09-16T13:33:22;16.00;93.00
21612;DHT22;47005;52.292;13.452;2022-09-16T13:36:01;16.00;92.80
21612;DHT22;47005;52.292;13.452;2022-09-16T13:38:39;16.00;91.70
21612;DHT22;47005;52.292;13.452;2022-09-16T13:41:05;16.10;91.90
21612;DHT22;47005;52.292;13.452;2022-09-16T13:46:13;16.10;92.30
21612;DHT22;47005;52.292;13.452;2022-09-16T13:51:29;16.20;91.70
21612;DHT22;47005;52.292;13.452;2022-09-16T13:53:58;16.20;91.40
21612;DHT22;47005;52.292;13.452;2022-09-16T14:02:11;16.30;91.20
21612;DHT22;47005;52.292;13.452;2022-09-16T14:13:19;16.40;91.40
21612;DHT22;47005;52.292;13.452;2022-09-16T14:15:53;16.50;90.70
21612;DHT22;47005;52.292;13.452;2022-09-16T14:18:25;16.50;90.60
21612;DHT22;47005;52.292;13.452;2022-09-16T14:20:59;16.50;91.10
21612;DHT22;47005;52.292;13.452;2022-09-16T14:23:27;16.50;91.10
21612;DHT22;47005;52.292;13.452;2022-09-16T14:25:52;16.60;91.00
21612;DHT22;47005;52.292;13.452;2022-09-16T14:28:22;16.60;90.30
21612;DHT22;47005;52.292;13.452;2022-09-16T14:34:00;16.60;91.00
21612;DHT22;47005;52.292;13.452;2022-09-16T14:36:37;16.70;90.60
21612;DHT22;47005;52.292;13.452;2022-09-16T14:39:11;16.70;91.00
21612;DHT22;47005;52.292;13.452;2022-09-16T14:41:48;16.70;90.50
21612;DHT22;47005;52.292;13.452;2022-09-16T14:46:55;16.70;90.60
21612;DHT22;47005;52.292;13.452;2022-09-16T14:49:22;16.70;91.00
21612;DHT22;47005;52.292;13.452;2022-09-16T14:51:52;16.70;88.40
21612;DHT22;47005;52.292;13.452;2022-09-16T14:54:20;16.70;88.60
21612;DHT22;47005;52.292;13.452;2022-09-16T14:57:00;16.70;89.40
21612;DHT22;47005;52.292;13.452;2022-09-16T14:59:35;16.70;87.90
21612;DHT22;47005;52.292;13.452;2022-09-16T15:02:14;16.70;89.10
21612;DHT22;47005;52.292;13.452;2022-09-16T15:04:44;16.70;88.80
21612;DHT22;47005;52.292;13.452;2022-09-16T15:07:23;16.70;88.00
21612;DHT22;47005;52.292;13.452;2022-09-16T15:10:06;16.70;88.20
21612;DHT22;47005;52.292;13.452;2022-09-16T15:12:43;16.70;86.60
21612;DHT22;47005;52.292;13.452;2022-09-16T15:15:24;16.60;90.00
21612;DHT22;47005;52.292;13.452;2022-09-16T15:18:06;16.60;89.00
21612;DHT22;47005;52.292;13.452;2022-09-16T15:20:36;16.60;88.10
21612;DHT22;47005;52.292;13.452;2022-09-16T15:23:04;16.60;87.70
21612;DHT22;47005;52.292;13.452;2022-09-16T15:25:32;16.70;87.60
21612;DHT22;47005;52.292;13.452;2022-09-16T15:28:15;16.60;88.30
21612;DHT22;47005;52.292;13.452;2022-09-16T15:30:52;16.70;86.90
21612;DHT22;47005;52.292;13.452;2022-09-16T15:33:35;16.70;87.00
21612;DHT22;47005;52.292;13.452;2022-09-16T15:36:02;16.80;86.30
21612;DHT22;47005;52.292;13.452;2022-09-16T15:38:29;16.80;85.90
21612;DHT22;47005;52.292;13.452;2022-09-16T15:41:05;16.80;86.50
21612;DHT22;47005;52.292;13.452;2022-09-16T15:43:37;16.80;85.50
21612;DHT22;47005;52.292;13.452;2022-09-16T15:46:13;16.90;85.50
21612;DHT22;47005;52.292;13.452;2022-09-16T15:48:46;16.80;82.10
21612;DHT22;47005;52.292;13.452;2022-09-16T15:51:35;16.90;83.70
21612;DHT22;47005;52.292;13.452;2022-09-16T15:54:25;16.90;82.30
21612;DHT22;47005;52.292;13.452;2022-09-16T15:59:37;16.90;83.90
21612;DHT22;47005;52.292;13.452;2022-09-16T16:02:20;16.90;84.40
21612;DHT22;47005;52.292;13.452;2022-09-16T16:04:47;16.90;81.90
21612;DHT22;47005;52.292;13.452;2022-09-16T16:07:36;17.00;81.60
21612;DHT22;47005;52.292;13.452;2022-09-16T16:10:14;17.00;80.60
21612;DHT22;47005;52.292;13.452;2022-09-16T16:12:42;17.00;82.00
21612;DHT22;47005;52.292;13.452;2022-09-16T16:15:11;17.00;81.70
21612;DHT22;47005;52.292;13.452;2022-09-16T16:17:37;17.00;82.20
21612;DHT22;47005;52.292;13.452;2022-09-16T16:20:04;17.00;82.00
21612;DHT22;47005;52.292;13.452;2022-09-16T16:22:29;16.90;81.90
21612;DHT22;47005;52.292;13.452;2022-09-16T16:24:55;16.90;82.20
21612;DHT22;47005;52.292;13.452;2022-09-16T16:27:21;16.90;82.60
21612;DHT22;47005;52.292;13.452;2022-09-16T16:29:46;16.90;82.60
21612;DHT22;47005;52.292;13.452;2022-09-16T16:32:14;16.80;81.80
21612;DHT22;47005;52.292;13.452;2022-09-16T16:34:46;16.70;83.40
21612;DHT22;47005;52.292;13.452;2022-09-16T16:37:13;16.80;83.60
21612;DHT22;47005;52.292;13.452;2022-09-16T16:39:39;16.70;83.60
21612;DHT22;47005;52.292;13.452;2022-09-16T16:42:05;16.70;82.10
21612;DHT22;47005;52.292;13.452;2022-09-16T16:44:31;16.70;82.70
21612;DHT22;47005;52.292;13.452;2022-09-16T16:46:58;16.60;82.80
21612;DHT22;47005;52.292;13.452;2022-09-16T16:49:23;16.60;81.90
21612;DHT22;47005;52.292;13.452;2022-09-16T16:51:50;16.60;82.00
21612;DHT22;47005;52.292;13.452;2022-09-16T16:54:20;16.60;82.60
21612;DHT22;47005;52.292;13.452;2022-09-16T16:56:46;16.60;83.00
21612;DHT22;47005;52.292;13.452;2022-09-16T16:59:13;16.50;82.60
21612;DHT22;47005;52.292;13.452;2022-09-16T17:01:39;16.50;81.90
21612;DHT22;47005;52.292;13.452;2022-09-16T17:04:05;16.50;82.70
21612;DHT22;47005;52.292;13.452;2022-09-16T17:06:31;16.50;83.60
21612;DHT22;47005;52.292;13.452;2022-09-16T17:08:57;16.50;83.40
21612;DHT22;47005;52.292;13.452;2022-09-16T17:11:23;16.40;83.10
21612;DHT22;47005;52.292;13.452;2022-09-16T17:13:51;16.40;82.50
21612;DHT22;47005;52.292;13.452;2022-09-16T17:16:22;16.40;82.50
21612;DHT22;47005;52.292;13.452;2022-09-16T17:18:49;16.40;82.60
21612;DHT22;47005;52.292;13.452;2022-09-16T17:21:20;16.30;82.70
21612;DHT22;47005;52.292;13.452;2022-09-16T17:23:49;16.30;82.30
21612;DHT22;47005;52.292;13.452;2022-09-16T17:26:16;16.30;82.60
21612;DHT22;47005;52.292;13.452;2022-09-16T17:28:44;16.30;82.60
21612;DHT22;47005;52.292;13.452;2022-09-16T17:31:17;16.20;82.90
21612;DHT22;47005;52.292;13.452;2022-09-16T17:33:51;16.20;83.60
21612;DHT22;47005;52.292;13.452;2022-09-16T17:36:18;16.20;83.20
21612;DHT22;47005;52.292;13.452;2022-09-16T17:39:02;16.10;83.80
21612;DHT22;47005;52.292;13.452;2022-09-16T17:41:28;16.10;84.20
21612;DHT22;47005;52.292;13.452;2022-09-16T17:43:55;16.10;84.50
21612;DHT22;47005;52.292;13.452;2022-09-16T17:46:22;16.00;84.20
21612;DHT22;47005;52.292;13.452;2022-09-16T17:48:48;16.10;84.20
21612;DHT22;47005;52.292;13.452;2022-09-16T17:51:17;16.00;84.50
21612;DHT22;47005;52.292;13.452;2022-09-16T17:53:43;16.00;84.20
21612;DHT22;47005;52.292;13.452;2022-09-16T17:56:13;15.90;84.80
21612;DHT22;47005;52.292;13.452;2022-09-16T17:58:41;15.90;85.20
21612;DHT22;47005;52.292;13.452;2022-09-16T18:01:16;15.90;84.90
21612;DHT22;47005;52.292;13.452;2022-09-16T18:03:44;15.90;85.30
21612;DHT22;47005;52.292;13.452;2022-09-16T18:06:15;15.90;85.50
21612;DHT22;47005;52.292;13.452;2022-09-16T18:08:42;15.80;85.60
21612;DHT22;47005;52.292;13.452;2022-09-16T18:11:09;15.80;85.80
21612;DHT22;47005;52.292;13.452;2022-09-16T18:13:36;15.80;85.60
21612;DHT22;47005;52.292;13.452;2022-09-16T18:18:35;15.80;86.00
21612;DHT22;47005;52.292;13.452;2022-09-16T18:21:02;15.70;86.20
21612;DHT22;47005;52.292;13.452;2022-09-16T18:23:28;15.70;85.70
21612;DHT22;47005;52.292;13.452;2022-09-16T18:25:55;15.60;86.00
21612;DHT22;47005;52.292;13.452;2022-09-16T18:28:21;15.70;86.20
21612;DHT22;47005;52.292;13.452;2022-09-16T18:31:08;15.60;86.50
21612;DHT22;47005;52.292;13.452;2022-09-16T18:33:34;15.60;86.80
21612;DHT22;47005;52.292;13.452;2022-09-16T18:36:01;15.60;86.80
21612;DHT22;47005;52.292;13.452;2022-09-16T18:38:31;15.60;86.80
21612;DHT22;47005;52.292;13.452;2022-09-16T18:41:04;15.60;86.70
21612;DHT22;47005;52.292;13.452;2022-09-16T18:43:30;15.50;87.00
21612;DHT22;47005;52.292;13.452;2022-09-16T18:46:09;15.50;87.00
21612;DHT22;47005;52.292;13.452;2022-09-16T18:48:34;15.50;87.30
21612;DHT22;47005;52.292;13.452;2022-09-16T18:51:00;15.50;87.40